Time;durP1;ratioP1;P1;durP2;ratioP2;P2;SDS_P1;SDS_P2;PMS_P1;PMS_P2;Temp;Humidity;BMP_temperature;BMP_pressure;BME280_temperature;BME280_humidity;BME280_pressure;Samples;Min_cycle;Max_cycle;Signal;HPM_P1;HPM_P2
2022/09/18 00:00:56;;;;;;;9.57;6.93;;;;;;;9.69;85.08;98022.47;5070994;28;20048;-64
2022/09/18 00:03:21;;;;;;;11.40;7.15;;;;;;;9.72;85.28;98029.88;5073005;28;20040;-65
2022/09/18 00:05:47;;;;;;;8.93;6.40;;;;;;;9.74;85.34;98027.00;5074598;28;20444;-65
2022/09/18 00:08:13;;;;;;;9.60;7.15;;;;;;;9.73;84.87;98023.53;5074049;28;20089;-64
2022/09/18 00:10:45;;;;;;;11.20;6.80;;;;;;;9.73;84.46;98020.09;5074274;28;20053;-65
2022/09/18 00:13:12;;;;;;;9.88;6.60;;;;;;;9.76;84.71;98025.66;5074041;28;20037;-65
2022/09/18 00:15:38;;;;;;;10.70;7.03;;;;;;;9.75;84.55;98016.13;5089903;28;20401;-65
2022/09/18 00:18:05;;;;;;;10.10;6.82;;;;;;;9.79;84.70;98016.38;5073815;28;20140;-65
2022/09/18 00:20:33;;;;;;;10.32;6.32;;;;;;;9.75;85.13;98017.97;5074124;28;20064;-64
2022/09/18 00:22:59;;;;;;;9.93;7.25;;;;;;;9.67;85.29;98011.34;5074087;28;20071;-66
2022/09/18 00:25:25;;;;;;;11.52;7.32;;;;;;;9.64;85.74;98016.38;5073848;28;20060;-65
2022/09/18 00:27:50;;;;;;;11.45;7.38;;;;;;;9.61;85.57;98019.56;5072881;28;20114;-65
2022/09/18 00:30:16;;;;;;;11.45;7.18;;;;;;;9.59;85.41;98019.84;5073794;28;20067;-64
2022/09/18 00:32:42;;;;;;;11.85;7.20;;;;;;;9.56;85.58;98012.44;5072395;28;20044;-66
2022/09/18 00:35:08;;;;;;;11.15;8.18;;;;;;;9.53;85.63;98015.59;5072195;28;20045;-64
2022/09/18 00:37:34;;;;;;;13.45;6.88;;;;;;;9.50;85.88;98011.63;5073502;28;20417;-66
2022/09/18 00:39:59;;;;;;;10.98;6.50;;;;;;;9.49;85.82;98007.38;5073824;28;20218;-65
2022/09/18 00:42:25;;;;;;;10.80;7.22;;;;;;;9.48;86.58;98010.31;5072267;28;20185;-65
2022/09/18 00:44:51;;;;;;;11.77;7.28;;;;;;;9.45;86.17;98002.91;5073944;28;20040;-65
2022/09/18 00:47:26;;;;;;;14.57;8.07;;;;;;;9.38;86.11;98005.78;5072439;28;20413;-66
2022/09/18 00:50:08;;;;;;;10.40;7.43;;;;;;;9.35;86.35;98016.09;5072340;28;20059;-64
2022/09/18 00:52:58;;;;;;;13.60;7.38;;;;;;;9.31;86.52;98013.97;5073595;28;20436;-66
2022/09/18 00:55:34;;;;;;;12.57;7.75;;;;;;;9.26;86.43;98019.25;5071731;28;20179;-64
2022/09/18 00:58:01;;;;;;;11.63;7.22;;;;;;;9.24;86.72;98015.31;5073478;28;20049;-66
2022/09/18 01:00:28;;;;;;;13.13;7.70;;;;;;;9.19;86.67;98018.72;5073174;28;20052;-65
2022/09/18 01:02:54;;;;;;;14.13;7.75;;;;;;;9.17;87.13;98014.75;5073118;28;20048;-65
2022/09/18 01:05:44;;;;;;;13.88;7.32;;;;;;;9.14;87.63;98018.72;5055433;28;20056;-65
2022/09/18 01:08:46;;;;;;;9.35;7.20;;;;;;;9.13;87.38;98014.47;5072974;28;20509;-65
2022/09/18 01:11:40;;;;;;;11.75;7.22;;;;;;;9.07;87.79;98012.88;5055204;28;20093;-65
2022/09/18 01:14:44;;;;;;;14.50;8.20;;;;;;;9.07;88.11;98010.25;5072181;28;20072;-66
2022/09/18 01:17:39;;;;;;;14.82;8.18;;;;;;;9.07;87.74;98011.03;5070242;28;20460;-64
2022/09/18 01:20:27;;;;;;;17.58;8.25;;;;;;;9.07;87.55;98021.59;5069507;28;20468;-65
2022/09/18 01:23:20;;;;;;;12.73;7.10;;;;;;;9.07;88.72;98020.81;5071756;28;20042;-64
2022/09/18 01:26:14;;;;;;;11.38;7.65;;;;;;;9.04;87.86;98027.41;5071531;28;20055;-64
2022/09/18 01:28:43;;;;;;;11.90;7.70;;;;;;;8.99;88.55;98024.75;5054678;28;20509;-65
2022/09/18 01:31:16;;;;;;;10.23;7.43;;;;;;;8.94;88.17;98030.03;5088312;28;20083;-64
2022/09/18 01:34:02;;;;;;;14.25;8.07;;;;;;;8.94;89.00;98023.94;5071645;28;20098;-64
2022/09/18 01:36:32;;;;;;;11.80;7.68;;;;;;;8.97;88.86;98024.22;5037978;28;20402;-65
2022/09/18 01:39:11;;;;;;;10.48;7.80;;;;;;;8.96;88.50;98029.75;5071372;28;20044;-64
2022/09/18 01:41:38;;;;;;;12.30;7.72;;;;;;;8.98;88.47;98030.31;5071189;28;20144;-65
2022/09/18 01:44:10;;;;;;;11.93;7.50;;;;;;;8.95;88.69;98028.19;5037876;28;20110;-63
2022/09/18 01:46:38;;;;;;;9.75;7.53;;;;;;;8.94;88.29;98037.97;5072643;28;20040;-65
2022/09/18 01:49:09;;;;;;;15.23;9.77;;;;;;;8.95;88.40;98047.47;5071250;28;20045;-64
2022/09/18 01:52:00;;;;;;;17.45;9.68;;;;;;;8.92;88.35;98039.28;5055291;28;20127;-65
2022/09/18 01:54:32;;;;;;;17.13;9.65;;;;;;;8.92;89.17;98042.72;5071767;28;20131;-65
2022/09/18 01:57:09;;;;;;;15.63;9.32;;;;;;;8.90;88.72;98041.38;5054403;28;20063;-64
2022/09/18 01:59:54;;;;;;;26.23;13.68;;;;;;;8.90;89.23;98051.94;5053776;28;20171;-64
2022/09/18 02:02:31;;;;;;;15.07;8.77;;;;;;;8.87;88.97;98046.13;5071025;28;20040;-65
2022/09/18 02:05:00;;;;;;;14.15;9.38;;;;;;;8.85;89.19;98050.88;5087669;28;20041;-64
2022/09/18 02:07:28;;;;;;;16.25;7.85;;;;;;;8.84;88.62;98051.91;5071746;28;20566;-64
2022/09/18 02:09:55;;;;;;;17.05;9.10;;;;;;;8.82;88.97;98045.28;5070559;28;20041;-64
2022/09/18 02:12:24;;;;;;;11.52;8.25;;;;;;;8.80;89.00;98047.44;5053790;28;20421;-65
2022/09/18 02:14:56;;;;;;;12.38;7.80;;;;;;;8.78;89.23;98045.03;5070364;28;20037;-64
2022/09/18 02:17:39;;;;;;;10.40;7.65;;;;;;;8.75;89.18;98040.25;5070322;28;20052;-65
2022/09/18 02:20:31;;;;;;;11.45;7.65;;;;;;;8.72;89.40;98040.78;5037276;28;20524;-64
2022/09/18 02:23:00;;;;;;;12.95;8.40;;;;;;;8.71;89.47;98048.97;5070356;28;20041;-64
2022/09/18 02:25:42;;;;;;;15.07;8.50;;;;;;;8.67;89.92;98038.09;5087127;28;20048;-64
2022/09/18 02:28:08;;;;;;;15.13;8.75;;;;;;;8.66;90.00;98047.09;5071421;28;20036;-65
2022/09/18 02:30:37;;;;;;;11.43;8.73;;;;;;;8.63;89.97;98048.41;5070258;28;20121;-64
2022/09/18 02:33:02;;;;;;;13.00;8.65;;;;;;;8.62;90.35;98048.66;5071720;28;20039;-64
2022/09/18 02:35:36;;;;;;;13.07;8.77;;;;;;;8.61;90.11;98050.50;5071653;28;20037;-63
2022/09/18 02:38:14;;;;;;;15.20;9.70;;;;;;;8.59;89.80;98055.25;5070192;28;20497;-62
2022/09/18 02:40:43;;;;;;;21.17;12.43;;;;;;;8.57;89.92;98062.63;5070166;28;20058;-64
2022/09/18 02:43:26;;;;;;;17.17;11.43;;;;;;;8.55;90.02;98050.72;5070351;28;20147;-65
2022/09/18 02:46:24;;;;;;;13.20;9.75;;;;;;;8.54;91.03;98059.72;5071686;28;20048;-65
2022/09/18 02:49:11;;;;;;;15.57;8.93;;;;;;;8.51;90.73;98060.22;5066388;28;20043;-65
2022/09/18 02:51:47;;;;;;;17.52;9.65;;;;;;;8.52;91.31;98067.88;5069883;28;20082;-66
2022/09/18 02:54:17;;;;;;;15.75;10.05;;;;;;;8.51;91.40;98074.22;5071396;28;20503;-65
2022/09/18 02:56:48;;;;;;;14.38;9.68;;;;;;;8.51;91.87;98071.59;5053453;28;20509;-65
2022/09/18 02:59:38;;;;;;;14.25;9.10;;;;;;;8.51;91.89;98074.22;5070243;28;20083;-65
2022/09/18 03:02:07;;;;;;;15.07;9.38;;;;;;;8.48;91.77;98074.75;5051357;28;20045;-64
2022/09/18 03:04:35;;;;;;;17.10;9.27;;;;;;;8.46;91.49;98082.09;5070300;28;20045;-65
2022/09/18 03:07:03;;;;;;;14.10;9.57;;;;;;;8.44;92.36;98067.56;5070194;28;20071;-64
2022/09/18 03:09:33;;;;;;;15.30;9.73;;;;;;;8.46;92.05;98070.75;5070022;28;20036;-65
2022/09/18 03:12:01;;;;;;;14.23;9.43;;;;;;;8.43;92.18;98073.91;5070182;28;20186;-64
2022/09/18 03:14:29;;;;;;;20.45;10.52;;;;;;;8.39;91.77;98068.34;5070021;28;20044;-65
2022/09/18 03:16:55;;;;;;;15.00;10.10;;;;;;;8.39;92.46;98066.50;5069865;28;20417;-65
2022/09/18 03:19:20;;;;;;;18.08;10.48;;;;;;;8.37;92.16;98073.84;5069929;28;20037;-67
2022/09/18 03:21:46;;;;;;;19.83;10.82;;;;;;;8.32;92.73;98060.59;5070007;28;20143;-64
2022/09/18 03:24:12;;;;;;;16.30;9.90;;;;;;;8.41;92.70;98072.31;5070210;28;20115;-66
2022/09/18 03:26:41;;;;;;;20.75;10.60;;;;;;;8.44;93.11;98072.84;5053147;28;20052;-65
2022/09/18 03:29:08;;;;;;;15.25;10.18;;;;;;;8.47;92.89;98078.44;5069900;28;20045;-65
2022/09/18 03:31:34;;;;;;;17.90;10.43;;;;;;;8.52;92.48;98077.66;5070139;28;20049;-65
2022/09/18 03:34:01;;;;;;;17.42;11.02;;;;;;;8.55;92.26;98066.59;5070043;28;20052;-65
2022/09/18 03:36:27;;;;;;;16.10;10.73;;;;;;;8.68;92.47;98073.25;5071609;28;20129;-65
2022/09/18 03:38:55;;;;;;;18.42;10.93;;;;;;;8.80;92.20;98079.13;5074096;28;20048;-65
2022/09/18 03:41:21;;;;;;;19.48;11.45;;;;;;;8.92;91.77;98073.63;5073969;28;20572;-65
2022/09/18 03:43:48;;;;;;;20.73;11.27;;;;;;;9.04;91.15;98072.34;5074118;28;20170;-65
2022/09/18 03:46:21;;;;;;;17.55;11.50;;;;;;;9.20;90.00;98078.47;5057285;28;20051;-63
2022/09/18 03:48:48;;;;;;;22.33;12.50;;;;;;;9.37;89.18;98072.97;5041674;28;20055;-65
2022/09/18 03:51:13;;;;;;;21.73;11.45;;;;;;;9.53;89.06;98074.59;5057062;28;20078;-64
2022/09/18 03:53:39;;;;;;;16.77;11.52;;;;;;;9.72;87.55;98069.56;5057279;28;20424;-64
2022/09/18 03:56:25;;;;;;;17.40;11.30;;;;;;;9.87;86.68;98065.34;5073817;28;20533;-65
2022/09/18 03:58:53;;;;;;;21.90;12.43;;;;;;;9.99;85.70;98066.66;5074933;28;20074;-65
2022/09/18 04:01:48;;;;;;;18.77;12.20;;;;;;;10.20;84.58;98067.44;5060698;28;20052;-64
2022/09/18 04:04:26;;;;;;;19.50;11.50;;;;;;;10.36;83.64;98062.16;5074691;28;20068;-66
2022/09/18 04:06:58;;;;;;;22.80;11.88;;;;;;;10.46;82.83;98057.63;5074798;28;20052;-64
2022/09/18 04:09:43;;;;;;;15.95;10.88;;;;;;;10.49;82.66;98042.25;5074577;28;20062;-65
2022/09/18 04:12:10;;;;;;;18.70;10.35;;;;;;;10.69;82.29;98044.84;5056413;28;20037;-64
2022/09/18 04:14:36;;;;;;;19.00;11.13;;;;;;;10.79;81.31;98050.09;5039739;28;20083;-66
2022/09/18 04:17:02;;;;;;;13.70;10.40;;;;;;;10.84;80.76;98047.44;5072787;28;20135;-65
2022/09/18 04:19:28;;;;;;;13.77;10.27;;;;;;;10.91;80.58;98050.59;5073038;28;20043;-65
2022/09/18 04:21:56;;;;;;;18.02;11.43;;;;;;;10.97;80.53;98053.22;5072982;28;20043;-64
2022/09/18 04:24:21;;;;;;;23.02;10.60;;;;;;;11.02;80.12;98042.59;5073017;28;20040;-65
2022/09/18 04:26:48;;;;;;;16.60;10.68;;;;;;;11.06;79.58;98044.44;5056095;28;20090;-66
2022/09/18 04:29:14;;;;;;;14.77;10.73;;;;;;;11.05;79.28;98045.47;5072949;28;20110;-65
2022/09/18 04:31:40;;;;;;;15.57;10.63;;;;;;;11.05;79.61;98048.13;5055911;28;20044;-65
2022/09/18 04:34:10;;;;;;;;;;;;;;;11.01;79.21;98052.41;5073265;28;20558;-65
2022/09/18 04:36:36;;;;;;;14.60;9.75;;;;;;;10.95;79.23;98050.84;5072686;28;19928;-65
2022/09/18 04:39:02;;;;;;;14.52;9.48;;;;;;;10.94;79.45;98048.44;5072578;28;20044;-65
2022/09/18 04:41:28;;;;;;;16.02;10.02;;;;;;;10.94;79.90;98045.81;5072264;28;20477;-65
2022/09/18 04:43:55;;;;;;;16.63;10.23;;;;;;;10.89;79.66;98049.28;5072387;28;20052;-65
2022/09/18 04:46:21;;;;;;;15.25;10.60;;;;;;;10.93;79.86;98052.19;5072425;28;20097;-65
2022/09/18 04:48:49;;;;;;;18.70;10.07;;;;;;;10.94;80.17;98043.16;5072557;28;20048;-65
2022/09/18 04:51:18;;;;;;;13.27;9.50;;;;;;;10.86;79.74;98053.28;5072270;28;20052;-65
2022/09/18 04:53:46;;;;;;;16.25;10.75;;;;;;;10.94;79.64;98051.09;5072204;28;20052;-66
2022/09/18 04:56:13;;;;;;;13.70;9.93;;;;;;;10.93;79.79;98042.38;5072336;28;20041;-65
2022/09/18 04:58:44;;;;;;;15.07;9.93;;;;;;;10.93;80.05;98050.31;5072272;28;20048;-66
2022/09/18 05:01:11;;;;;;;11.45;9.40;;;;;;;10.97;80.00;98053.22;5072159;28;20048;-65
2022/09/18 05:03:36;;;;;;;13.40;9.23;;;;;;;11.04;79.72;98054.50;5055198;28;20098;-65
2022/09/18 05:06:03;;;;;;;13.15;9.52;;;;;;;11.14;79.38;98056.31;5055327;28;20048;-65
2022/09/18 05:08:31;;;;;;;13.38;9.60;;;;;;;11.20;78.54;98059.72;5071926;28;20417;-64
2022/09/18 05:10:57;;;;;;;14.90;8.73;;;;;;;11.33;78.70;98067.09;5071980;28;20049;-65
2022/09/18 05:13:26;;;;;;;17.65;10.25;;;;;;;11.49;78.18;98067.78;5088552;28;20064;-64
2022/09/18 05:15:59;;;;;;;15.13;9.50;;;;;;;11.62;77.44;98071.69;5056199;28;20441;-65
2022/09/18 05:18:28;;;;;;;14.43;8.35;;;;;;;11.80;77.06;98063.88;5055121;28;20063;-65
2022/09/18 05:21:01;;;;;;;14.93;9.32;;;;;;;12.12;76.31;98070.53;5054938;28;20433;-65
2022/09/18 05:23:27;;;;;;;12.65;8.52;;;;;;;12.30;75.07;98058.41;5071861;28;20040;-65
2022/09/18 05:25:52;;;;;;;16.52;9.68;;;;;;;12.49;74.38;98061.13;5072809;28;20071;-66
2022/09/18 05:28:19;;;;;;;17.05;9.40;;;;;;;12.62;74.07;98060.47;5071763;28;20393;-65
2022/09/18 05:30:47;;;;;;;14.50;9.63;;;;;;;12.68;73.38;98067.31;5071604;28;20036;-64
2022/09/18 05:33:13;;;;;;;12.90;8.85;;;;;;;12.67;72.89;98068.38;5071380;28;20129;-66
2022/09/18 05:35:41;;;;;;;20.15;9.50;;;;;;;12.69;72.84;98068.91;5072076;28;20047;-65
2022/09/18 05:38:09;;;;;;;13.30;9.23;;;;;;;12.72;72.68;98067.53;5073444;28;20206;-65
2022/09/18 05:40:37;;;;;;;17.67;9.57;;;;;;;12.70;72.82;98053.72;5071304;28;20044;-66
2022/09/18 05:43:04;;;;;;;12.15;8.93;;;;;;;12.72;72.61;98063.00;5072738;28;20064;-66
2022/09/18 05:45:32;;;;;;;14.50;9.98;;;;;;;12.61;73.00;98058.09;5071496;28;20091;-65
2022/09/18 05:48:01;;;;;;;18.40;10.80;;;;;;;12.45;73.76;98057.47;5071356;28;20063;-66
2022/09/18 05:50:29;;;;;;;17.10;10.50;;;;;;;12.30;73.99;98054.97;5071045;28;20055;-65
2022/09/18 05:53:00;;;;;;;16.20;10.25;;;;;;;12.30;74.06;98049.66;5071073;28;20045;-66
2022/09/18 05:55:32;;;;;;;18.75;9.88;;;;;;;12.24;74.37;98043.59;5071044;28;20486;-65
2022/09/18 05:57:59;;;;;;;21.58;9.90;;;;;;;12.23;74.48;98040.13;5071086;28;20044;-65
2022/09/18 06:00:26;;;;;;;19.15;9.93;;;;;;;12.20;74.66;98043.34;5053860;28;20459;-65
2022/09/18 06:03:02;;;;;;;15.85;9.63;;;;;;;12.27;74.68;98038.50;5071112;28;20040;-65
2022/09/18 06:05:30;;;;;;;21.67;10.85;;;;;;;12.36;74.50;98040.56;5070742;28;20055;-65
2022/09/18 06:08:00;;;;;;;14.05;10.23;;;;;;;12.48;74.11;98047.06;5070994;28;20067;-65
2022/09/18 06:10:26;;;;;;;;;;;;;;;12.63;74.19;98054.06;5071345;28;20044;-65
2022/09/18 06:13:06;;;;;;;13.45;9.73;;;;;;;12.73;73.45;98056.63;5070761;28;20034;-63
2022/09/18 06:15:38;;;;;;;15.20;9.80;;;;;;;12.86;72.79;98060.47;5054018;28;20069;-65
2022/09/18 06:18:05;;;;;;;14.25;9.73;;;;;;;13.02;72.38;98052.28;5071067;28;20459;-64
2022/09/18 06:20:35;;;;;;;14.98;10.35;;;;;;;13.16;72.04;98050.53;5070576;28;20049;-65
2022/09/18 06:23:02;;;;;;;14.43;9.48;;;;;;;13.27;71.42;98051.22;5054304;28;20412;-65
2022/09/18 06:25:38;;;;;;;18.02;10.20;;;;;;;13.37;71.08;98056.38;5070565;28;20130;-64
2022/09/18 06:28:05;;;;;;;12.85;9.23;;;;;;;13.42;69.80;98047.53;5070602;28;20386;-66
2022/09/18 06:30:32;;;;;;;10.63;8.05;;;;;;;13.50;70.14;98041.53;5070547;28;20049;-64
2022/09/18 06:33:06;;;;;;;14.38;9.30;;;;;;;13.58;68.90;98044.34;5071589;28;20040;-64
2022/09/18 06:35:34;;;;;;;19.38;9.68;;;;;;;13.64;69.10;98047.72;5070559;28;20089;-65
2022/09/18 06:38:04;;;;;;;14.13;9.35;;;;;;;13.59;68.79;98056.59;5070548;28;20036;-66
2022/09/18 06:40:36;;;;;;;11.77;8.77;;;;;;;13.60;68.95;98044.84;5070195;28;20072;-64
2022/09/18 06:43:14;;;;;;;15.20;9.13;;;;;;;13.62;68.74;98044.59;5070132;28;20127;-66
2022/09/18 06:45:42;;;;;;;18.27;10.05;;;;;;;13.63;68.72;98048.81;5071548;28;20044;-65
2022/09/18 06:48:09;;;;;;;15.10;9.00;;;;;;;13.67;68.66;98043.69;5069960;28;20045;-65
2022/09/18 06:50:36;;;;;;;16.08;9.93;;;;;;;13.66;68.89;98050.91;5070344;28;20083;-65
2022/09/18 06:53:04;;;;;;;17.20;10.48;;;;;;;13.74;68.72;98044.13;5071617;28;20048;-65
2022/09/18 06:55:35;;;;;;;15.48;10.15;;;;;;;13.78;68.58;98045.91;5070151;28;20143;-64
2022/09/18 06:58:03;;;;;;;12.20;8.77;;;;;;;13.74;68.26;98041.47;5069885;28;20036;-65
2022/09/18 07:00:28;;;;;;;13.25;8.73;;;;;;;13.83;67.66;98039.72;5069851;28;20075;-65
2022/09/18 07:02:59;;;;;;;13.43;7.90;;;;;;;13.81;66.95;98040.00;5053508;28;20048;-65
2022/09/18 07:05:46;;;;;;;12.10;8.35;;;;;;;13.88;66.35;98038.84;5071514;28;20071;-65
2022/09/18 07:08:23;;;;;;;12.10;7.20;;;;;;;13.94;65.96;98037.66;5070165;28;20036;-65
2022/09/18 07:10:53;;;;;;;11.95;7.20;;;;;;;13.98;66.01;98034.13;5070439;28;20075;-65
2022/09/18 07:13:18;;;;;;;11.05;7.38;;;;;;;14.01;65.56;98036.22;5075192;28;20115;-65
2022/09/18 07:15:46;;;;;;;13.73;8.27;;;;;;;14.10;65.43;98033.66;5074119;28;20140;-64
2022/09/18 07:18:12;;;;;;;10.00;7.25;;;;;;;14.14;64.73;98033.88;5073882;28;20131;-66
2022/09/18 07:20:38;;;;;;;13.02;7.07;;;;;;;14.20;64.42;98027.34;5074087;28;20143;-66
2022/09/18 07:23:03;;;;;;;12.38;7.35;;;;;;;14.23;64.43;98040.09;5057363;28;20386;-66
2022/09/18 07:25:40;;;;;;;14.25;7.47;;;;;;;14.25;64.30;98028.06;5057218;28;20382;-66
2022/09/18 07:28:07;;;;;;;12.90;7.45;;;;;;;14.29;64.26;98022.94;5073757;28;20041;-67
2022/09/18 07:30:38;;;;;;;16.23;7.18;;;;;;;14.26;63.78;98015.53;5073625;28;20045;-65
2022/09/18 07:33:05;;;;;;;10.20;6.93;;;;;;;14.26;63.72;98021.63;5057029;28;20150;-64
2022/09/18 07:35:37;;;;;;;14.98;6.80;;;;;;;14.26;63.55;98018.97;5058031;28;20493;-63
2022/09/18 07:38:04;;;;;;;9.32;7.00;;;;;;;14.26;63.55;98020.84;5073734;28;20071;-63
2022/09/18 07:40:46;;;;;;;12.30;6.80;;;;;;;14.25;63.42;98004.06;5073907;28;20084;-63
2022/09/18 07:43:22;;;;;;;10.18;6.53;;;;;;;14.31;63.50;98002.91;5073819;28;20106;-64
2022/09/18 07:45:52;;;;;;;11.15;6.75;;;;;;;14.32;63.94;98009.00;5073780;28;20115;-64
2022/09/18 07:48:18;;;;;;;10.02;7.03;;;;;;;14.35;63.20;98002.31;5074970;28;20085;-64
2022/09/18 07:50:47;;;;;;;11.63;7.53;;;;;;;14.38;64.01;97999.03;5057661;28;20044;-64
2022/09/18 07:53:14;;;;;;;11.70;6.53;;;;;;;14.43;63.06;97997.06;5073559;28;20037;-64
2022/09/18 07:55:45;;;;;;;14.88;8.88;;;;;;;14.56;62.43;97998.22;5073767;28;20340;-63
2022/09/18 07:58:12;;;;;;;7.38;6.18;;;;;;;14.66;61.75;97983.88;5074711;28;20068;-64
2022/09/18 08:00:50;;;;;;;12.25;6.10;;;;;;;14.72;61.85;97982.69;5074889;28;20476;-64
2022/09/18 08:03:17;;;;;;;9.38;6.35;;;;;;;14.78;61.43;97978.81;5073277;28;20132;-65
2022/09/18 08:06:09;;;;;;;11.75;5.85;;;;;;;14.72;61.49;97975.47;5050771;28;20048;-64
2022/09/18 08:08:35;;;;;;;9.73;5.90;;;;;;;14.74;61.53;97967.97;5056458;28;20059;-65
2022/09/18 08:11:13;;;;;;;7.70;5.38;;;;;;;14.75;61.09;97960.75;5074656;28;20558;-64
2022/09/18 08:14:02;;;;;;;9.13;4.70;;;;;;;14.73;60.99;97952.25;5068511;28;20098;-63
2022/09/18 08:16:40;;;;;;;9.60;5.43;;;;;;;14.72;61.11;97946.13;5072801;28;20064;-64
2022/09/18 08:19:23;;;;;;;9.65;5.40;;;;;;;14.70;60.75;97940.28;5072874;28;20086;-65
2022/09/18 08:21:52;;;;;;;8.27;5.47;;;;;;;14.66;60.59;97941.97;5072511;28;20125;-65
2022/09/18 08:24:17;;;;;;;12.27;5.47;;;;;;;14.63;61.42;97945.25;5073070;28;20496;-63
2022/09/18 08:26:44;;;;;;;8.02;5.38;;;;;;;14.71;61.36;97939.22;5072768;28;20071;-64
2022/09/18 08:29:17;;;;;;;13.32;6.60;;;;;;;14.85;61.80;97941.06;5072953;28;20497;-65
2022/09/18 08:31:47;;;;;;;8.75;5.95;;;;;;;15.03;61.06;97934.78;5072885;28;20055;-63
2022/09/18 08:34:14;;;;;;;10.13;5.88;;;;;;;15.20;60.48;97942.13;5072646;28;20082;-64
2022/09/18 08:36:40;;;;;;;7.75;6.50;;;;;;;15.32;59.36;97936.25;5074642;28;20141;-64
2022/09/18 08:39:28;;;;;;;10.52;6.85;;;;;;;15.53;59.77;97941.88;5070632;28;20072;-63
2022/09/18 08:42:34;;;;;;;12.73;6.85;;;;;;;15.81;58.92;97931.88;5073932;28;20099;-64
2022/09/18 08:45:16;;;;;;;13.52;6.78;;;;;;;15.99;58.02;97922.81;5072702;28;20036;-65
2022/09/18 08:47:59;;;;;;;13.15;7.50;;;;;;;16.03;58.13;97921.13;5073507;28;20062;-64
2022/09/18 08:50:33;;;;;;;12.82;7.65;;;;;;;16.00;57.34;97912.91;5056448;28;20132;-64
2022/09/18 08:53:03;;;;;;;12.77;7.97;;;;;;;16.05;58.07;97910.91;5072083;28;20517;-64
2022/09/18 08:55:46;;;;;;;14.80;9.35;;;;;;;16.17;58.12;97912.97;5042954;28;20083;-63
2022/09/18 08:58:56;;;;;;;12.60;9.32;;;;;;;16.24;57.15;97909.88;5073303;28;20040;-63
2022/09/18 09:01:29;;;;;;;13.57;7.97;;;;;;;16.20;56.89;97911.59;5071996;28;20053;-64
2022/09/18 09:04:12;;;;;;;18.45;8.70;;;;;;;16.29;57.00;97899.03;5055746;28;20045;-64
2022/09/18 09:06:44;;;;;;;18.15;8.85;;;;;;;16.35;56.66;97898.59;5055526;28;20078;-65
2022/09/18 09:09:39;;;;;;;15.07;8.30;;;;;;;16.45;56.37;97897.50;5055207;28;20090;-64
2022/09/18 09:12:14;;;;;;;13.85;8.90;;;;;;;16.58;56.16;97903.81;5039143;28;20050;-65
2022/09/18 09:14:42;;;;;;;17.13;9.55;;;;;;;16.61;56.39;97891.69;5073317;28;20064;-64
2022/09/18 09:17:17;;;;;;;14.88;8.95;;;;;;;16.70;56.06;97898.63;5073037;28;20071;-65
2022/09/18 09:19:54;;;;;;;11.98;7.95;;;;;;;16.79;55.89;97894.13;5071694;28;20048;-64
2022/09/18 09:22:43;;;;;;;17.20;9.23;;;;;;;16.93;55.54;97893.94;5071870;28;20055;-65
2022/09/18 09:25:36;;;;;;;14.13;8.75;;;;;;;16.77;56.22;97888.28;5072892;28;20169;-65
2022/09/18 09:28:55;;;;;;;11.25;8.27;;;;;;;16.65;56.60;97892.63;5071866;28;20098;-65
2022/09/18 09:31:56;;;;;;;16.05;7.35;;;;;;;16.70;55.94;97889.81;5059281;28;20106;-64
2022/09/18 09:34:45;;;;;;;14.02;6.25;;;;;;;16.74;54.08;97888.09;5070725;28;20135;-64
2022/09/18 09:37:38;;;;;;;9.80;5.88;;;;;;;16.72;53.52;97901.00;5072548;28;20106;-64
2022/09/18 09:40:31;;;;;;;7.57;5.60;;;;;;;16.65;54.01;97901.47;5055239;28;20044;-63
2022/09/18 09:43:36;;;;;;;8.82;5.82;;;;;;;16.58;54.41;97885.84;5055097;28;20037;-65
2022/09/18 09:46:11;;;;;;;8.15;6.00;;;;;;;16.63;54.37;97882.25;5038477;28;20136;-64
2022/09/18 09:49:04;;;;;;;8.40;6.13;;;;;;;16.68;55.08;97865.28;5070973;28;20134;-63
2022/09/18 09:51:33;;;;;;;9.90;5.80;;;;;;;16.73;54.65;97879.25;5063126;28;20532;-64
2022/09/18 09:54:00;;;;;;;10.63;6.13;;;;;;;16.64;54.54;97869.66;5072568;28;20040;-63
2022/09/18 09:56:27;;;;;;;8.27;5.88;;;;;;;16.60;54.30;97874.06;5071067;28;20052;-64
2022/09/18 09:58:59;;;;;;;7.30;6.13;;;;;;;16.55;54.44;97877.69;5071147;28;20079;-65
2022/09/18 10:01:30;;;;;;;11.18;6.25;;;;;;;16.48;55.02;97874.69;5054569;28;20060;-64
2022/09/18 10:04:15;;;;;;;6.85;5.35;;;;;;;16.57;54.73;97873.59;5071255;28;20490;-65
2022/09/18 10:06:55;;;;;;;6.75;5.90;;;;;;;16.78;54.66;97875.69;5071106;28;20061;-63
2022/09/18 10:09:33;;;;;;;10.10;5.47;;;;;;;16.89;53.93;97870.81;5071175;28;20174;-65
2022/09/18 10:12:08;;;;;;;10.10;6.32;;;;;;;16.93;54.00;97872.53;5072441;28;20044;-65
2022/09/18 10:14:37;;;;;;;7.38;5.63;;;;;;;16.76;54.20;97870.63;5037619;28;20493;-64
2022/09/18 10:17:05;;;;;;;11.50;6.20;;;;;;;16.61;55.21;97860.38;5070080;28;20052;-64
2022/09/18 10:19:36;;;;;;;10.00;7.00;;;;;;;16.71;55.10;97867.31;5054337;28;20037;-62
2022/09/18 10:22:06;;;;;;;10.45;6.97;;;;;;;16.71;55.22;97862.75;5070773;28;20425;-61
2022/09/18 10:24:52;;;;;;;10.05;6.95;;;;;;;16.74;54.52;97858.66;5070524;28;20106;-63
2022/09/18 10:27:18;;;;;;;13.23;6.70;;;;;;;16.71;54.77;97845.91;5054587;28;20052;-62
2022/09/18 10:29:44;;;;;;;13.02;7.60;;;;;;;16.74;55.21;97837.25;5070460;28;20044;-62
2022/09/18 10:32:37;;;;;;;10.55;7.88;;;;;;;16.65;56.39;97839.13;5055128;28;20124;-63
2022/09/18 10:35:29;;;;;;;15.82;8.50;;;;;;;16.53;57.05;97835.22;5071450;28;20053;-63
2022/09/18 10:37:56;;;;;;;16.10;8.70;;;;;;;16.36;57.89;97824.50;5070555;28;20052;-62
2022/09/18 10:40:38;;;;;;;11.20;8.52;;;;;;;16.25;58.27;97831.25;5055605;28;20056;-63
2022/09/18 10:43:06;;;;;;;11.20;8.18;;;;;;;16.06;58.65;97826.97;5053900;28;20056;-65
2022/09/18 10:45:40;;;;;;;12.90;8.68;;;;;;;15.95;59.12;97817.66;5070207;28;20061;-64
2022/09/18 10:48:24;;;;;;;12.68;8.57;;;;;;;15.82;59.70;97823.88;5056146;28;20047;-64
2022/09/18 10:50:54;;;;;;;12.52;8.27;;;;;;;15.75;59.71;97835.03;5037258;28;20457;-64
2022/09/18 10:53:41;;;;;;;13.32;7.78;;;;;;;15.73;60.32;97837.22;5070332;28;20489;-64
2022/09/18 10:56:30;;;;;;;13.88;8.38;;;;;;;15.74;60.33;97833.47;5057390;28;20044;-63
2022/09/18 10:59:12;;;;;;;12.93;8.73;;;;;;;15.63;60.54;97811.53;5070093;28;20044;-62
2022/09/18 11:01:38;;;;;;;11.20;6.75;;;;;;;15.48;59.66;97795.16;5070194;28;20048;-64
2022/09/18 11:04:05;;;;;;;8.73;6.43;;;;;;;15.39;59.80;97797.78;5070363;28;20043;-64
2022/09/18 11:06:36;;;;;;;12.90;6.30;;;;;;;15.28;60.69;97793.81;5070114;28;20098;-63
2022/09/18 11:09:18;;;;;;;15.02;7.72;;;;;;;15.35;61.41;97799.47;5055407;28;20523;-63
2022/09/18 11:11:50;;;;;;;8.23;6.43;;;;;;;15.25;61.51;97795.19;5053521;28;20067;-63
2022/09/18 11:14:28;;;;;;;10.07;5.72;;;;;;;15.20;62.10;97798.78;5070028;28;20421;-63
2022/09/18 11:17:00;;;;;;;11.07;6.45;;;;;;;15.20;62.35;97796.09;5053144;28;20056;-62
2022/09/18 11:19:34;;;;;;;10.73;6.30;;;;;;;15.17;62.62;97779.94;5054362;28;20493;-65
2022/09/18 11:22:41;;;;;;;13.18;6.45;;;;;;;15.04;63.32;97780.81;5069976;28;20075;-64
2022/09/18 11:25:28;;;;;;;11.38;7.10;;;;;;;15.02;63.58;97777.66;5070005;28;20078;-66
2022/09/18 11:27:59;;;;;;;9.57;7.40;;;;;;;14.97;63.46;97781.22;5056420;28;20427;-63
2022/09/18 11:30:34;;;;;;;11.52;7.07;;;;;;;14.95;63.90;97773.53;5074331;28;20126;-64
2022/09/18 11:33:22;;;;;;;10.02;7.63;;;;;;;14.95;63.84;97765.53;5078738;28;20123;-63
2022/09/18 11:35:54;;;;;;;10.77;8.00;;;;;;;14.98;64.35;97754.25;5063273;28;20213;-65
2022/09/18 11:38:22;;;;;;;11.68;8.23;;;;;;;14.91;64.23;97756.56;5061568;28;20040;-64
2022/09/18 11:40:50;;;;;;;10.98;7.40;;;;;;;14.67;65.06;97743.53;5062961;28;20070;-64
2022/09/18 11:43:27;;;;;;;12.38;7.95;;;;;;;14.62;65.67;97737.53;5062136;28;20060;-63
2022/09/18 11:46:21;;;;;;;16.13;8.40;;;;;;;14.67;65.96;97737.41;5059873;28;20451;-64
2022/09/18 11:49:00;;;;;;;19.80;9.05;;;;;;;14.61;66.55;97742.09;5079275;28;20043;-64
2022/09/18 11:51:30;;;;;;;;;;;;;;;14.65;66.94;97743.06;5086351;28;20044;-63
2022/09/18 11:54:03;;;;;;;13.63;8.75;;;;;;;14.62;67.25;97725.00;5073033;28;19916;-64
2022/09/18 11:56:40;;;;;;;11.13;8.52;;;;;;;14.50;67.79;97722.88;5089863;28;20091;-63
2022/09/18 11:59:37;;;;;;;13.23;8.82;;;;;;;14.47;68.02;97720.00;5076843;28;20098;-64